Terminal Aerodrome Forecast
Issued by NWS Buffalo, NY

Home | Current Version | Previous Version | Text Only | Print | Product List | Glossary On
Versions: 1 2 3 4 5 6 7 8 9 10 11 12 13 14 15 16 17 18 19 20 21 22 23 24 25 26 27 28
000
FTUS41 KBUF 020500
TAFBUF
TAF
KBUF 020529Z 0206/0306 15006KT P6SM BKN120
     FM021200 18011KT P6SM SCT150
     FM021800 20016G24KT P6SM BKN100
     FM022200 20017G23KT 6SM -SHRA OVC070
     FM030000 21018G27KT 4SM SHRA OVC040
     FM030200 22022G38KT 4SM SHRA OVC035
     FM030500 26014KT 6SM -SHRA BKN090=

USA.gov is the U.S. government's official web portal to all federal, state and local government web resources and services.